createdAt,value
2019-03-09T00:02:46.546Z,5.90
2019-03-09T00:05:48.583Z,5.93
2019-03-09T00:08:50.545Z,5.96
2019-03-09T00:11:52.447Z,5.92
2019-03-09T00:14:55.243Z,5.90
2019-03-09T00:17:57.156Z,5.82
2019-03-09T00:20:59.004Z,5.75
2019-03-09T00:24:17.801Z,5.73
2019-03-09T00:27:29.443Z,5.72
2019-03-09T00:30:39.470Z,5.66
2019-03-09T00:33:41.352Z,5.59
2019-03-09T00:36:43.314Z,5.60
2019-03-09T00:39:45.508Z,5.60
2019-03-09T00:42:47.479Z,5.61
2019-03-09T00:45:49.400Z,5.57
2019-03-09T00:48:52.906Z,5.54
2019-03-09T00:51:54.855Z,5.52
2019-03-09T00:54:56.729Z,5.48
2019-03-09T00:57:58.685Z,5.42
2019-03-09T01:01:00.581Z,5.39
2019-03-09T01:04:02.739Z,5.34
2019-03-09T01:07:04.715Z,5.33
2019-03-09T01:10:12.378Z,5.33
2019-03-09T01:13:14.300Z,5.29
2019-03-09T01:16:16.220Z,5.27
2019-03-09T01:19:18.136Z,5.17
2019-03-09T01:22:20.056Z,5.14
2019-03-09T01:25:21.908Z,5.10
2019-03-09T01:28:23.800Z,5.05
2019-03-09T01:31:25.765Z,5.03
2019-03-09T01:34:27.687Z,4.99
2019-03-09T01:37:29.591Z,4.96
2019-03-09T01:40:31.542Z,4.89
2019-03-09T01:43:33.441Z,4.82
2019-03-09T01:46:35.336Z,4.76
2019-03-09T01:49:37.254Z,4.72
2019-03-09T01:52:39.719Z,4.73
2019-03-09T01:55:41.578Z,4.73
2019-03-09T01:58:43.489Z,4.72
2019-03-09T02:01:45.413Z,4.63
2019-03-09T02:04:47.387Z,4.55
2019-03-09T02:07:49.333Z,4.50
2019-03-09T02:10:51.295Z,4.45
2019-03-09T02:13:53.173Z,4.41
2019-03-09T02:16:55.129Z,4.39
2019-03-09T02:19:57.014Z,4.41
2019-03-09T02:22:58.972Z,4.38
2019-03-09T02:26:00.905Z,4.37
2019-03-09T02:29:03.091Z,4.35
2019-03-09T02:32:05.024Z,4.36
2019-03-09T02:35:10.579Z,4.35
2019-03-09T02:38:17.152Z,4.37
2019-03-09T02:41:19.059Z,4.35
2019-03-09T02:44:20.968Z,4.39
2019-03-09T02:47:22.882Z,4.42
2019-03-09T02:50:24.788Z,4.47
2019-03-09T02:53:26.636Z,4.51
2019-03-09T02:56:28.579Z,4.57
2019-03-09T02:59:31.569Z,4.59
2019-03-09T03:02:35.292Z,4.61
2019-03-09T03:05:37.206Z,4.65
2019-03-09T03:08:39.260Z,4.72
2019-03-09T03:11:41.140Z,4.82
2019-03-09T03:14:44.502Z,4.90
2019-03-09T03:17:46.372Z,5.00
2019-03-09T03:20:48.257Z,5.08
2019-03-09T03:23:50.195Z,5.17
2019-03-09T03:26:52.097Z,5.27
2019-03-09T03:29:54.038Z,5.37
2019-03-09T03:32:57.709Z,5.44
2019-03-09T03:35:59.703Z,5.51
2019-03-09T03:39:05.436Z,5.54
2019-03-09T03:42:07.568Z,5.53
2019-03-09T03:45:13.905Z,5.54
2019-03-09T03:48:15.791Z,5.56
2019-03-09T03:51:17.696Z,5.58
2019-03-09T03:54:19.628Z,5.57
2019-03-09T03:57:21.537Z,5.53
2019-03-09T04:00:23.483Z,5.48
2019-03-09T04:03:27.401Z,5.45
2019-03-09T04:06:29.951Z,5.44
2019-03-09T04:09:32.792Z,5.42
2019-03-09T04:12:34.838Z,5.45
2019-03-09T04:15:36.786Z,5.50
2019-03-09T04:18:38.701Z,5.50
2019-03-09T04:21:40.621Z,5.53
2019-03-09T04:24:42.507Z,5.53
2019-03-09T04:27:44.431Z,5.58
2019-03-09T04:30:46.288Z,5.66
2019-03-09T04:33:48.310Z,5.71
2019-03-09T04:36:56.541Z,5.74
2019-03-09T04:39:58.570Z,5.79
2019-03-09T04:43:00.450Z,5.78
2019-03-09T04:46:02.523Z,5.78
2019-03-09T04:49:04.451Z,5.77
2019-03-09T04:52:06.333Z,5.74
2019-03-09T04:55:08.782Z,5.72
2019-03-09T04:58:10.694Z,5.69
2019-03-09T05:01:13.003Z,5.66
2019-03-09T05:04:28.298Z,5.66
2019-03-09T05:07:30.254Z,5.67
2019-03-09T05:10:44.852Z,5.63
2019-03-09T05:13:46.919Z,5.67
2019-03-09T05:16:48.778Z,5.66
2019-03-09T05:19:50.791Z,5.69
2019-03-09T05:22:52.723Z,5.71
2019-03-09T05:25:54.686Z,5.76
2019-03-09T05:28:56.589Z,5.78
2019-03-09T05:31:58.556Z,5.79
2019-03-09T05:35:00.565Z,5.79
2019-03-09T05:38:03.203Z,5.85
2019-03-09T05:41:05.119Z,5.90
2019-03-09T05:44:07.055Z,5.98
2019-03-09T05:47:09.002Z,6.00
2019-03-09T05:50:10.951Z,6.05
2019-03-09T05:53:15.139Z,6.12
2019-03-09T05:56:17.094Z,6.15
2019-03-09T05:59:18.988Z,6.17
2019-03-09T06:02:20.911Z,6.16
2019-03-09T06:05:30.108Z,6.16
2019-03-09T06:08:32.181Z,6.23
2019-03-09T06:11:34.095Z,6.41
2019-03-09T06:14:36.019Z,6.53
2019-03-09T06:17:37.949Z,6.60
2019-03-09T06:20:39.827Z,6.63
2019-03-09T06:23:41.770Z,6.70
2019-03-09T06:26:43.681Z,6.83
2019-03-09T06:29:45.656Z,6.95
2019-03-09T06:33:22.320Z,7.23
2019-03-09T06:36:34.076Z,7.49
2019-03-09T06:39:35.968Z,7.73
2019-03-09T06:42:44.116Z,8.09
2019-03-09T06:45:46.004Z,7.96
2019-03-09T06:48:47.900Z,7.79
2019-03-09T06:51:49.828Z,7.71
2019-03-09T06:54:51.751Z,7.86
2019-03-09T06:57:53.658Z,8.31
2019-03-09T07:00:57.203Z,9.62
2019-03-09T07:03:59.139Z,10.82
2019-03-09T07:07:01.153Z,11.74
2019-03-09T07:10:04.658Z,11.35
2019-03-09T07:13:07.174Z,10.78
2019-03-09T07:16:11.515Z,10.56
2019-03-09T07:19:13.449Z,10.34
2019-03-09T07:22:15.354Z,10.21
2019-03-09T07:25:17.299Z,10.10
2019-03-09T07:28:19.204Z,9.89
2019-03-09T07:31:21.456Z,9.89
2019-03-09T07:34:25.416Z,10.04
2019-03-09T07:37:27.524Z,10.28
2019-03-09T07:40:29.474Z,10.43
2019-03-09T07:43:31.465Z,10.49
2019-03-09T07:46:33.387Z,10.51
2019-03-09T07:49:35.262Z,10.52
2019-03-09T07:52:37.101Z,10.46
2019-03-09T07:55:39.054Z,10.50
2019-03-09T07:58:40.984Z,10.53
2019-03-09T08:01:42.940Z,10.49
2019-03-09T08:04:44.865Z,10.39
2019-03-09T08:07:47.478Z,10.38
2019-03-09T08:10:49.393Z,10.40
2019-03-09T08:13:51.393Z,10.45
2019-03-09T08:16:53.278Z,10.46
2019-03-09T08:19:55.199Z,10.35
2019-03-09T08:22:57.116Z,10.27
2019-03-09T08:25:59.051Z,10.25
2019-03-09T08:29:00.912Z,10.27
2019-03-09T08:32:02.857Z,10.36
2019-03-09T08:35:06.666Z,10.51
2019-03-09T08:38:08.723Z,10.63
2019-03-09T08:41:10.617Z,10.66
2019-03-09T08:44:12.644Z,10.72
2019-03-09T08:47:15.984Z,10.79
2019-03-09T08:50:19.787Z,10.88
2019-03-09T08:53:21.708Z,10.88
2019-03-09T08:56:23.622Z,10.95
2019-03-09T08:59:25.576Z,11.12
2019-03-09T09:02:27.486Z,11.15
2019-03-09T09:05:29.427Z,11.08
2019-03-09T09:08:31.346Z,10.93
2019-03-09T09:11:33.261Z,10.78
2019-03-09T09:14:35.279Z,10.53
2019-03-09T09:17:37.379Z,10.24
2019-03-09T09:20:39.306Z,10.02
2019-03-09T09:23:41.255Z,9.77
2019-03-09T09:26:43.193Z,9.54
2019-03-09T09:29:45.176Z,9.27
2019-03-09T09:32:47.047Z,8.98
2019-03-09T09:35:49.003Z,8.76
2019-03-09T09:38:51.060Z,8.69
2019-03-09T09:41:53.027Z,8.69
2019-03-09T09:44:54.987Z,8.75
2019-03-09T09:47:57.018Z,8.83
2019-03-09T09:50:58.899Z,8.92
2019-03-09T09:54:00.877Z,8.97
2019-03-09T09:57:02.800Z,9.05
2019-03-09T10:00:11.237Z,9.02
2019-03-09T10:03:13.109Z,9.02
2019-03-09T10:06:15.153Z,8.97
2019-03-09T10:09:18.018Z,8.88
2019-03-09T10:12:19.953Z,8.72
2019-03-09T10:15:29.274Z,8.48
2019-03-09T10:18:31.279Z,8.36
2019-03-09T10:21:33.222Z,8.21
2019-03-09T10:24:35.136Z,8.12
2019-03-09T10:27:37.038Z,8.07
2019-03-09T10:30:39.010Z,8.14
2019-03-09T10:33:40.947Z,8.21
2019-03-09T10:36:42.954Z,8.26
2019-03-09T10:39:45.040Z,8.31
2019-03-09T10:42:47.086Z,8.32
2019-03-09T10:45:49.160Z,8.40
2019-03-09T10:48:51.062Z,8.39
2019-03-09T10:51:53.953Z,8.51
2019-03-09T10:54:55.866Z,8.65
2019-03-09T10:57:57.852Z,8.75
2019-03-09T11:00:59.748Z,8.84
2019-03-09T11:04:01.725Z,8.88
2019-03-09T11:07:03.719Z,8.93
2019-03-09T11:10:06.475Z,9.05
2019-03-09T11:13:08.393Z,9.13
2019-03-09T11:16:10.745Z,9.14
2019-03-09T11:19:13.254Z,9.10
2019-03-09T11:22:15.129Z,9.22
2019-03-09T11:25:17.031Z,9.32
2019-03-09T11:28:18.955Z,9.43
2019-03-09T11:31:20.915Z,9.44
2019-03-09T11:34:22.756Z,9.53
2019-03-09T11:37:24.726Z,9.55
2019-03-09T11:40:26.964Z,9.53
2019-03-09T11:43:28.882Z,9.62
2019-03-09T11:46:30.890Z,9.70
2019-03-09T11:49:32.771Z,9.74
2019-03-09T11:52:34.684Z,9.74
2019-03-09T11:55:36.604Z,9.83
2019-03-09T11:58:38.513Z,9.97
2019-03-09T12:01:40.415Z,10.16
2019-03-09T12:04:46.631Z,10.39
2019-03-09T12:07:47.114Z,10.55
2019-03-09T12:10:48.979Z,10.69
2019-03-09T12:13:51.039Z,10.79
2019-03-09T12:16:53.037Z,10.92
2019-03-09T12:19:55.225Z,11.07
2019-03-09T12:23:01.654Z,11.38
2019-03-09T12:26:03.879Z,11.51
2019-03-09T12:29:05.756Z,11.72
2019-03-09T12:32:07.689Z,11.91
2019-03-09T12:35:09.659Z,11.92
2019-03-09T12:38:11.625Z,11.93
2019-03-09T12:41:13.586Z,11.98
2019-03-09T12:44:15.652Z,11.95
2019-03-09T12:47:19.009Z,11.89
2019-03-09T12:50:22.243Z,11.91
2019-03-09T12:53:24.154Z,12.01
2019-03-09T12:56:26.040Z,12.07
2019-03-09T12:59:27.970Z,12.25
2019-03-09T13:02:29.860Z,12.37
2019-03-09T13:05:31.757Z,12.54
2019-03-09T13:08:33.634Z,12.49
2019-03-09T13:11:35.575Z,12.47
2019-03-09T13:14:37.453Z,12.53
2019-03-09T13:17:39.486Z,12.59
2019-03-09T13:20:41.458Z,12.68
2019-03-09T13:23:43.349Z,12.70
2019-03-09T13:26:45.312Z,12.68
2019-03-09T13:29:47.193Z,12.77
2019-03-09T13:32:49.260Z,12.80
2019-03-09T13:35:51.195Z,12.83
2019-03-09T13:38:53.141Z,12.87
2019-03-09T13:41:55.165Z,12.67
2019-03-09T13:44:57.042Z,12.53
2019-03-09T13:47:59.162Z,12.41
2019-03-09T13:51:01.094Z,12.41
2019-03-09T13:54:03.028Z,12.46
2019-03-09T13:57:05.033Z,12.46
2019-03-09T14:00:12.831Z,12.45
2019-03-09T14:03:14.803Z,12.46
2019-03-09T14:06:16.778Z,12.43
2019-03-09T14:09:18.731Z,12.49
2019-03-09T14:12:20.640Z,12.42
2019-03-09T14:15:22.650Z,12.34
2019-03-09T14:18:24.719Z,12.23
2019-03-09T14:21:26.758Z,12.24
2019-03-09T14:24:28.709Z,12.27
2019-03-09T14:27:30.742Z,12.32
2019-03-09T14:30:34.382Z,12.32
2019-03-09T14:33:36.250Z,12.30
2019-03-09T14:36:38.244Z,12.32
2019-03-09T14:39:40.146Z,12.40
2019-03-09T14:42:44.057Z,12.44
2019-03-09T14:45:46.057Z,12.49
2019-03-09T14:48:48.156Z,12.55
2019-03-09T14:51:50.157Z,12.57
2019-03-09T14:54:52.227Z,12.57
2019-03-09T14:57:54.129Z,12.55
2019-03-09T15:00:56.035Z,12.43
2019-03-09T15:03:58.012Z,12.36
2019-03-09T15:07:07.699Z,12.34
2019-03-09T15:10:10.986Z,12.28
2019-03-09T15:13:12.999Z,12.11
2019-03-09T15:16:15.039Z,12.01
2019-03-09T15:19:17.730Z,11.93
2019-03-09T15:22:19.786Z,11.78
2019-03-09T15:25:21.780Z,11.63
2019-03-09T15:28:24.346Z,11.42
2019-03-09T15:31:26.263Z,10.91
2019-03-09T15:34:28.247Z,10.48
2019-03-09T15:37:30.118Z,10.24
2019-03-09T15:40:32.189Z,9.84
2019-03-09T15:43:34.296Z,9.48
2019-03-09T15:46:36.263Z,9.50
2019-03-09T15:49:38.392Z,9.62
2019-03-09T15:52:40.389Z,9.60
2019-03-09T15:55:45.135Z,9.49
2019-03-09T15:58:47.097Z,9.32
2019-03-09T16:01:49.006Z,9.21
2019-03-09T16:04:50.936Z,9.18
2019-03-09T16:07:53.001Z,9.04
2019-03-09T16:10:54.936Z,9.01
2019-03-09T16:13:56.876Z,9.03
2019-03-09T16:17:02.420Z,9.05
2019-03-09T16:20:09.139Z,9.15
2019-03-09T16:23:11.238Z,9.24
2019-03-09T16:26:13.192Z,9.33
2019-03-09T16:29:15.851Z,9.41
2019-03-09T16:32:18.535Z,9.48
2019-03-09T16:35:20.551Z,9.57
2019-03-09T16:38:23.121Z,9.57
2019-03-09T16:41:26.876Z,9.69
2019-03-09T16:44:31.191Z,9.72
2019-03-09T16:47:33.092Z,9.79
2019-03-09T16:50:35.070Z,9.78
2019-03-09T16:53:37.005Z,9.50
2019-03-09T16:56:38.960Z,8.97
2019-03-09T16:59:40.949Z,8.58
2019-03-09T17:02:42.972Z,8.28
2019-03-09T17:05:46.149Z,8.15
2019-03-09T17:08:48.093Z,8.12
2019-03-09T17:11:52.397Z,8.11
2019-03-09T17:14:54.262Z,8.21
2019-03-09T17:17:58.041Z,7.98
2019-03-09T17:21:00.135Z,7.84
2019-03-09T17:24:02.083Z,7.69
2019-03-09T17:27:03.997Z,7.62
2019-03-09T17:30:17.485Z,7.48
2019-03-09T17:33:19.455Z,7.35
2019-03-09T17:36:21.345Z,7.28
2019-03-09T17:39:23.606Z,7.28
2019-03-09T17:42:25.466Z,7.35
2019-03-09T17:45:27.464Z,7.41
2019-03-09T17:48:29.415Z,7.64
2019-03-09T17:51:33.975Z,7.93
2019-03-09T17:54:35.879Z,8.01
2019-03-09T17:57:37.870Z,8.01
2019-03-09T18:00:45.075Z,7.99
2019-03-09T18:03:49.577Z,7.89
2019-03-09T18:06:51.495Z,7.76
2019-03-09T18:09:53.501Z,7.68
2019-03-09T18:12:55.459Z,7.62
2019-03-09T18:15:57.790Z,7.59
2019-03-09T18:19:00.994Z,7.57
2019-03-09T18:22:03.806Z,7.53
2019-03-09T18:25:06.297Z,7.50
2019-03-09T18:28:08.894Z,7.52
2019-03-09T18:31:10.788Z,7.51
2019-03-09T18:34:12.757Z,7.47
2019-03-09T18:37:16.016Z,7.41
2019-03-09T18:40:20.912Z,7.35
2019-03-09T18:43:22.768Z,7.27
2019-03-09T18:46:25.946Z,7.26
2019-03-09T18:49:27.852Z,7.26
2019-03-09T18:52:29.851Z,7.21
2019-03-09T18:55:31.771Z,7.20
2019-03-09T18:58:33.762Z,7.20
2019-03-09T19:01:39.121Z,7.19
2019-03-09T19:04:41.046Z,7.18
2019-03-09T19:07:42.999Z,7.17
2019-03-09T19:10:45.422Z,7.18
2019-03-09T19:13:47.759Z,7.21
2019-03-09T19:16:49.653Z,7.20
2019-03-09T19:19:51.605Z,7.20
2019-03-09T19:22:54.260Z,7.19
2019-03-09T19:25:57.657Z,7.20
2019-03-09T19:28:59.566Z,7.19
2019-03-09T19:32:01.669Z,7.20
2019-03-09T19:35:07.007Z,7.21
2019-03-09T19:38:08.942Z,7.22
2019-03-09T19:41:11.800Z,7.30
2019-03-09T19:44:13.728Z,7.35
2019-03-09T19:47:15.727Z,7.44
2019-03-09T19:50:18.643Z,7.53
2019-03-09T19:53:22.390Z,7.61
2019-03-09T19:56:24.291Z,7.72
2019-03-09T19:59:28.751Z,7.81
2019-03-09T20:02:33.328Z,7.88
2019-03-09T20:05:35.238Z,7.94
2019-03-09T20:08:42.459Z,8.00
2019-03-09T20:11:46.275Z,8.07
2019-03-09T20:14:51.251Z,8.10
2019-03-09T20:17:53.456Z,8.12
2019-03-09T20:20:56.602Z,8.21
2019-03-09T20:23:58.612Z,8.28
2019-03-09T20:27:11.307Z,8.34
2019-03-09T20:30:15.833Z,8.38
2019-03-09T20:33:19.888Z,8.42
2019-03-09T20:36:22.104Z,8.43
2019-03-09T20:39:24.332Z,8.44
2019-03-09T20:42:28.286Z,8.45
2019-03-09T20:45:31.494Z,8.46
2019-03-09T20:48:35.852Z,8.44
2019-03-09T20:51:37.770Z,8.39
2019-03-09T20:54:39.999Z,8.36
2019-03-09T20:57:42.312Z,8.33
2019-03-09T21:00:45.337Z,8.33
2019-03-09T21:03:48.911Z,8.18
2019-03-09T21:06:51.115Z,8.03
2019-03-09T21:09:53.088Z,7.94
2019-03-09T21:13:07.680Z,7.81
2019-03-09T21:16:11.439Z,7.59
2019-03-09T21:19:13.739Z,7.42
2019-03-09T21:22:16.390Z,7.32
2019-03-09T21:25:18.425Z,7.23
2019-03-09T21:28:21.477Z,7.16
2019-03-09T21:31:23.346Z,7.17
2019-03-09T21:34:25.315Z,7.17
2019-03-09T21:37:27.243Z,7.18
2019-03-09T21:40:29.651Z,7.20
2019-03-09T21:43:33.353Z,7.11
2019-03-09T21:46:36.983Z,7.07
2019-03-09T21:49:39.024Z,7.05
2019-03-09T21:52:42.188Z,7.02
2019-03-09T21:55:44.161Z,6.99
2019-03-09T21:58:46.035Z,7.07
2019-03-09T22:01:47.970Z,7.10
2019-03-09T22:04:50.080Z,7.13
2019-03-09T22:07:52.039Z,7.10
2019-03-09T22:10:53.954Z,7.03
2019-03-09T22:13:55.927Z,7.03
2019-03-09T22:16:57.904Z,7.01
2019-03-09T22:19:59.795Z,7.01
2019-03-09T22:23:02.147Z,7.03
2019-03-09T22:26:04.094Z,7.02
2019-03-09T22:29:06.041Z,6.99
2019-03-09T22:32:07.995Z,6.94
2019-03-09T22:35:11.717Z,6.89
2019-03-09T22:38:15.119Z,6.88
2019-03-09T22:41:17.439Z,6.87
2019-03-09T22:44:19.322Z,6.88
2019-03-09T22:47:23.360Z,6.93
2019-03-09T22:50:25.815Z,6.96
2019-03-09T22:53:27.770Z,6.99
2019-03-09T22:56:29.750Z,7.05
2019-03-09T22:59:31.678Z,7.06
2019-03-09T23:02:33.625Z,7.07
2019-03-09T23:05:35.570Z,7.09
2019-03-09T23:08:37.796Z,7.10
2019-03-09T23:11:39.666Z,7.14
2019-03-09T23:14:41.559Z,7.08
2019-03-09T23:17:44.793Z,7.07
2019-03-09T23:20:46.748Z,7.05
2019-03-09T23:23:48.961Z,7.04
2019-03-09T23:26:50.936Z,7.02
2019-03-09T23:29:52.851Z,7.00
2019-03-09T23:32:54.873Z,6.94
2019-03-09T23:35:56.732Z,7.01
2019-03-09T23:38:58.698Z,6.98
2019-03-09T23:42:00.654Z,6.95
2019-03-09T23:45:03.424Z,6.87
2019-03-09T23:48:05.301Z,6.81
2019-03-09T23:51:07.310Z,6.72
2019-03-09T23:54:09.186Z,6.67
2019-03-09T23:57:11.158Z,6.61
